sensor_id;sensor_type;location;lat;lon;timestamp;P1;durP1;ratioP1;P2;durP2;ratioP2
14125;SDS011;7141;49.484;11.242;2023-04-25T00:01:16;4.70;;;3.70;;
14125;SDS011;7141;49.484;11.242;2023-04-25T00:03:43;5.60;;;3.80;;
14125;SDS011;7141;49.484;11.242;2023-04-25T00:06:10;6.40;;;4.40;;
14125;SDS011;7141;49.484;11.242;2023-04-25T00:08:36;7.60;;;4.30;;
14125;SDS011;7141;49.484;11.242;2023-04-25T00:11:02;7.37;;;3.87;;
14125;SDS011;7141;49.484;11.242;2023-04-25T00:13:28;6.37;;;4.53;;
14125;SDS011;7141;49.484;11.242;2023-04-25T00:15:54;5.40;;;3.60;;
14125;SDS011;7141;49.484;11.242;2023-04-25T00:18:21;4.20;;;3.63;;
14125;SDS011;7141;49.484;11.242;2023-04-25T00:20:47;5.33;;;4.17;;
14125;SDS011;7141;49.484;11.242;2023-04-25T00:23:16;4.80;;;3.80;;
14125;SDS011;7141;49.484;11.242;2023-04-25T00:25:49;4.20;;;3.53;;
14125;SDS011;7141;49.484;11.242;2023-04-25T00:28:16;4.70;;;3.87;;
14125;SDS011;7141;49.484;11.242;2023-04-25T00:30:42;8.77;;;3.90;;
14125;SDS011;7141;49.484;11.242;2023-04-25T00:33:08;4.53;;;3.83;;
14125;SDS011;7141;49.484;11.242;2023-04-25T00:35:34;4.73;;;4.07;;
14125;SDS011;7141;49.484;11.242;2023-04-25T00:38:01;5.27;;;3.80;;
14125;SDS011;7141;49.484;11.242;2023-04-25T00:40:27;4.50;;;4.00;;
14125;SDS011;7141;49.484;11.242;2023-04-25T00:42:54;6.73;;;3.70;;
14125;SDS011;7141;49.484;11.242;2023-04-25T00:45:20;4.37;;;3.73;;
14125;SDS011;7141;49.484;11.242;2023-04-25T00:47:46;9.70;;;3.87;;
14125;SDS011;7141;49.484;11.242;2023-04-25T00:50:13;4.07;;;3.37;;
14125;SDS011;7141;49.484;11.242;2023-04-25T00:52:40;6.87;;;4.13;;
14125;SDS011;7141;49.484;11.242;2023-04-25T00:55:06;6.03;;;3.90;;
14125;SDS011;7141;49.484;11.242;2023-04-25T00:57:33;4.67;;;3.63;;
14125;SDS011;7141;49.484;11.242;2023-04-25T00:59:59;4.83;;;4.23;;
14125;SDS011;7141;49.484;11.242;2023-04-25T01:02:25;6.73;;;4.50;;
14125;SDS011;7141;49.484;11.242;2023-04-25T01:04:52;5.23;;;4.47;;
14125;SDS011;7141;49.484;11.242;2023-04-25T01:07:18;7.67;;;4.13;;
14125;SDS011;7141;49.484;11.242;2023-04-25T01:09:45;5.30;;;4.10;;
14125;SDS011;7141;49.484;11.242;2023-04-25T01:12:11;4.20;;;3.70;;
14125;SDS011;7141;49.484;11.242;2023-04-25T01:14:39;4.53;;;4.10;;
14125;SDS011;7141;49.484;11.242;2023-04-25T01:17:05;5.23;;;4.07;;
14125;SDS011;7141;49.484;11.242;2023-04-25T01:19:32;5.47;;;4.03;;
14125;SDS011;7141;49.484;11.242;2023-04-25T01:21:58;5.43;;;3.90;;
14125;SDS011;7141;49.484;11.242;2023-04-25T01:24:24;6.50;;;4.73;;
14125;SDS011;7141;49.484;11.242;2023-04-25T01:26:50;4.63;;;4.23;;
14125;SDS011;7141;49.484;11.242;2023-04-25T01:29:18;4.70;;;4.27;;
14125;SDS011;7141;49.484;11.242;2023-04-25T01:31:44;4.83;;;4.10;;
14125;SDS011;7141;49.484;11.242;2023-04-25T01:34:11;4.57;;;3.87;;
14125;SDS011;7141;49.484;11.242;2023-04-25T01:36:37;4.70;;;4.30;;
14125;SDS011;7141;49.484;11.242;2023-04-25T01:39:03;4.57;;;3.97;;
14125;SDS011;7141;49.484;11.242;2023-04-25T01:41:29;4.43;;;4.03;;
14125;SDS011;7141;49.484;11.242;2023-04-25T01:43:55;5.80;;;4.13;;
14125;SDS011;7141;49.484;11.242;2023-04-25T01:46:21;5.47;;;4.23;;
14125;SDS011;7141;49.484;11.242;2023-04-25T01:48:47;5.30;;;4.70;;
14125;SDS011;7141;49.484;11.242;2023-04-25T01:51:13;8.57;;;4.27;;
14125;SDS011;7141;49.484;11.242;2023-04-25T01:53:40;5.73;;;4.93;;
14125;SDS011;7141;49.484;11.242;2023-04-25T01:56:06;7.73;;;4.80;;
14125;SDS011;7141;49.484;11.242;2023-04-25T01:58:32;4.93;;;4.13;;
14125;SDS011;7141;49.484;11.242;2023-04-25T02:00:58;4.40;;;4.00;;
14125;SDS011;7141;49.484;11.242;2023-04-25T02:03:24;7.43;;;4.37;;
14125;SDS011;7141;49.484;11.242;2023-04-25T02:05:50;6.27;;;4.03;;
14125;SDS011;7141;49.484;11.242;2023-04-25T02:08:16;5.33;;;4.10;;
14125;SDS011;7141;49.484;11.242;2023-04-25T02:10:43;6.03;;;4.67;;
14125;SDS011;7141;49.484;11.242;2023-04-25T02:13:09;5.43;;;4.70;;
14125;SDS011;7141;49.484;11.242;2023-04-25T02:15:35;5.27;;;4.23;;
14125;SDS011;7141;49.484;11.242;2023-04-25T02:18:01;6.53;;;4.20;;
14125;SDS011;7141;49.484;11.242;2023-04-25T02:20:28;6.27;;;5.00;;
14125;SDS011;7141;49.484;11.242;2023-04-25T02:22:55;5.33;;;4.20;;
14125;SDS011;7141;49.484;11.242;2023-04-25T02:25:21;4.67;;;4.17;;
14125;SDS011;7141;49.484;11.242;2023-04-25T02:27:47;5.10;;;4.10;;
14125;SDS011;7141;49.484;11.242;2023-04-25T02:30:13;6.20;;;4.23;;
14125;SDS011;7141;49.484;11.242;2023-04-25T02:32:40;4.67;;;4.17;;
14125;SDS011;7141;49.484;11.242;2023-04-25T02:35:06;8.30;;;4.90;;
14125;SDS011;7141;49.484;11.242;2023-04-25T02:37:33;6.90;;;4.27;;
14125;SDS011;7141;49.484;11.242;2023-04-25T02:39:59;6.20;;;4.20;;
14125;SDS011;7141;49.484;11.242;2023-04-25T02:42:25;6.07;;;4.83;;
14125;SDS011;7141;49.484;11.242;2023-04-25T02:44:51;4.43;;;3.73;;
14125;SDS011;7141;49.484;11.242;2023-04-25T02:47:17;8.07;;;4.60;;
14125;SDS011;7141;49.484;11.242;2023-04-25T02:49:43;4.43;;;3.90;;
14125;SDS011;7141;49.484;11.242;2023-04-25T02:52:10;4.53;;;4.13;;
14125;SDS011;7141;49.484;11.242;2023-04-25T02:54:36;5.03;;;4.53;;
14125;SDS011;7141;49.484;11.242;2023-04-25T02:57:02;6.90;;;4.50;;
14125;SDS011;7141;49.484;11.242;2023-04-25T02:59:28;6.00;;;4.50;;
14125;SDS011;7141;49.484;11.242;2023-04-25T03:01:54;6.77;;;4.77;;
14125;SDS011;7141;49.484;11.242;2023-04-25T03:04:20;7.57;;;4.83;;
14125;SDS011;7141;49.484;11.242;2023-04-25T03:06:48;11.90;;;5.47;;
14125;SDS011;7141;49.484;11.242;2023-04-25T03:09:14;7.07;;;5.70;;
14125;SDS011;7141;49.484;11.242;2023-04-25T03:11:40;6.53;;;5.77;;
14125;SDS011;7141;49.484;11.242;2023-04-25T03:14:06;7.47;;;5.30;;
14125;SDS011;7141;49.484;11.242;2023-04-25T03:16:32;8.47;;;5.63;;
14125;SDS011;7141;49.484;11.242;2023-04-25T03:18:58;7.57;;;5.77;;
14125;SDS011;7141;49.484;11.242;2023-04-25T03:21:24;8.03;;;6.20;;
14125;SDS011;7141;49.484;11.242;2023-04-25T03:23:51;8.00;;;6.40;;
14125;SDS011;7141;49.484;11.242;2023-04-25T03:26:17;7.90;;;6.10;;
14125;SDS011;7141;49.484;11.242;2023-04-25T03:28:43;6.63;;;5.40;;
14125;SDS011;7141;49.484;11.242;2023-04-25T03:31:09;8.20;;;6.40;;
14125;SDS011;7141;49.484;11.242;2023-04-25T03:33:35;7.03;;;5.43;;
14125;SDS011;7141;49.484;11.242;2023-04-25T03:36:01;7.43;;;6.07;;
14125;SDS011;7141;49.484;11.242;2023-04-25T03:38:27;9.57;;;5.87;;
14125;SDS011;7141;49.484;11.242;2023-04-25T03:40:53;7.30;;;5.97;;
14125;SDS011;7141;49.484;11.242;2023-04-25T03:43:21;9.33;;;6.10;;
14125;SDS011;7141;49.484;11.242;2023-04-25T03:45:47;7.07;;;6.00;;
14125;SDS011;7141;49.484;11.242;2023-04-25T03:48:13;6.73;;;5.73;;
14125;SDS011;7141;49.484;11.242;2023-04-25T03:50:39;6.67;;;6.00;;
14125;SDS011;7141;49.484;11.242;2023-04-25T03:53:05;9.27;;;6.63;;
14125;SDS011;7141;49.484;11.242;2023-04-25T03:55:31;6.90;;;6.00;;
14125;SDS011;7141;49.484;11.242;2023-04-25T03:57:57;8.47;;;6.23;;
14125;SDS011;7141;49.484;11.242;2023-04-25T04:00:24;9.80;;;6.03;;
14125;SDS011;7141;49.484;11.242;2023-04-25T04:02:50;7.53;;;6.10;;
14125;SDS011;7141;49.484;11.242;2023-04-25T04:05:16;8.50;;;6.53;;
14125;SDS011;7141;49.484;11.242;2023-04-25T04:07:42;8.97;;;8.00;;
14125;SDS011;7141;49.484;11.242;2023-04-25T04:10:08;12.17;;;8.13;;
14125;SDS011;7141;49.484;11.242;2023-04-25T04:12:34;9.80;;;7.13;;
14125;SDS011;7141;49.484;11.242;2023-04-25T04:15:01;8.17;;;6.33;;
14125;SDS011;7141;49.484;11.242;2023-04-25T04:17:28;9.20;;;5.80;;
14125;SDS011;7141;49.484;11.242;2023-04-25T04:19:54;7.87;;;6.00;;
14125;SDS011;7141;49.484;11.242;2023-04-25T04:22:21;7.93;;;5.53;;
14125;SDS011;7141;49.484;11.242;2023-04-25T04:24:47;7.07;;;5.60;;
14125;SDS011;7141;49.484;11.242;2023-04-25T04:27:14;6.57;;;5.73;;
14125;SDS011;7141;49.484;11.242;2023-04-25T04:29:42;8.50;;;6.67;;
14125;SDS011;7141;49.484;11.242;2023-04-25T04:32:08;15.50;;;8.73;;
14125;SDS011;7141;49.484;11.242;2023-04-25T04:34:34;11.63;;;8.03;;
14125;SDS011;7141;49.484;11.242;2023-04-25T04:37:00;8.93;;;6.30;;
14125;SDS011;7141;49.484;11.242;2023-04-25T04:39:26;7.43;;;5.97;;
14125;SDS011;7141;49.484;11.242;2023-04-25T04:41:52;10.20;;;6.40;;
14125;SDS011;7141;49.484;11.242;2023-04-25T04:44:18;9.93;;;6.10;;
14125;SDS011;7141;49.484;11.242;2023-04-25T04:46:44;7.27;;;5.90;;
14125;SDS011;7141;49.484;11.242;2023-04-25T04:49:11;9.87;;;6.17;;
14125;SDS011;7141;49.484;11.242;2023-04-25T04:51:38;7.83;;;5.90;;
14125;SDS011;7141;49.484;11.242;2023-04-25T04:54:05;8.67;;;6.53;;
14125;SDS011;7141;49.484;11.242;2023-04-25T04:56:31;8.50;;;6.13;;
14125;SDS011;7141;49.484;11.242;2023-04-25T04:58:58;8.97;;;6.87;;
14125;SDS011;7141;49.484;11.242;2023-04-25T05:01:24;7.30;;;6.30;;
14125;SDS011;7141;49.484;11.242;2023-04-25T05:03:50;8.60;;;6.43;;
14125;SDS011;7141;49.484;11.242;2023-04-25T05:06:17;8.80;;;6.43;;
14125;SDS011;7141;49.484;11.242;2023-04-25T05:08:43;8.47;;;7.13;;
14125;SDS011;7141;49.484;11.242;2023-04-25T05:11:09;8.87;;;6.90;;
14125;SDS011;7141;49.484;11.242;2023-04-25T05:13:36;8.00;;;7.20;;
14125;SDS011;7141;49.484;11.242;2023-04-25T05:16:02;9.07;;;7.23;;
14125;SDS011;7141;49.484;11.242;2023-04-25T05:18:28;8.93;;;6.17;;
14125;SDS011;7141;49.484;11.242;2023-04-25T05:20:54;10.63;;;7.10;;
14125;SDS011;7141;49.484;11.242;2023-04-25T05:23:20;9.03;;;6.80;;
14125;SDS011;7141;49.484;11.242;2023-04-25T05:25:46;8.67;;;6.93;;
14125;SDS011;7141;49.484;11.242;2023-04-25T05:28:12;9.67;;;7.37;;
14125;SDS011;7141;49.484;11.242;2023-04-25T05:30:39;10.27;;;6.47;;
14125;SDS011;7141;49.484;11.242;2023-04-25T05:33:05;9.87;;;7.10;;
14125;SDS011;7141;49.484;11.242;2023-04-25T05:35:31;10.47;;;6.73;;
14125;SDS011;7141;49.484;11.242;2023-04-25T05:37:57;7.53;;;6.13;;
14125;SDS011;7141;49.484;11.242;2023-04-25T05:40:23;6.97;;;5.90;;
14125;SDS011;7141;49.484;11.242;2023-04-25T05:42:49;6.70;;;5.60;;
14125;SDS011;7141;49.484;11.242;2023-04-25T05:45:15;6.60;;;5.70;;
14125;SDS011;7141;49.484;11.242;2023-04-25T05:47:42;6.03;;;5.13;;
14125;SDS011;7141;49.484;11.242;2023-04-25T05:50:08;11.07;;;5.60;;
14125;SDS011;7141;49.484;11.242;2023-04-25T05:52:34;7.33;;;5.87;;
14125;SDS011;7141;49.484;11.242;2023-04-25T05:55:00;7.43;;;6.00;;
14125;SDS011;7141;49.484;11.242;2023-04-25T05:57:27;7.50;;;5.80;;
14125;SDS011;7141;49.484;11.242;2023-04-25T05:59:53;7.10;;;6.10;;
14125;SDS011;7141;49.484;11.242;2023-04-25T06:02:19;7.47;;;6.27;;
14125;SDS011;7141;49.484;11.242;2023-04-25T06:04:46;6.50;;;5.80;;
14125;SDS011;7141;49.484;11.242;2023-04-25T06:07:12;8.80;;;6.23;;
14125;SDS011;7141;49.484;11.242;2023-04-25T06:09:38;8.00;;;6.17;;
14125;SDS011;7141;49.484;11.242;2023-04-25T06:12:05;6.33;;;5.70;;
14125;SDS011;7141;49.484;11.242;2023-04-25T06:14:31;7.83;;;6.10;;
14125;SDS011;7141;49.484;11.242;2023-04-25T06:16:57;8.10;;;5.97;;
14125;SDS011;7141;49.484;11.242;2023-04-25T06:19:23;6.67;;;5.97;;
14125;SDS011;7141;49.484;11.242;2023-04-25T06:21:49;6.67;;;5.60;;
14125;SDS011;7141;49.484;11.242;2023-04-25T06:24:15;8.63;;;6.10;;
14125;SDS011;7141;49.484;11.242;2023-04-25T06:26:41;7.10;;;5.63;;
14125;SDS011;7141;49.484;11.242;2023-04-25T06:29:07;6.97;;;6.03;;
14125;SDS011;7141;49.484;11.242;2023-04-25T06:31:34;6.53;;;5.67;;
14125;SDS011;7141;49.484;11.242;2023-04-25T06:34:00;8.60;;;5.90;;
14125;SDS011;7141;49.484;11.242;2023-04-25T06:36:26;7.63;;;6.10;;
14125;SDS011;7141;49.484;11.242;2023-04-25T06:38:52;7.23;;;6.17;;
14125;SDS011;7141;49.484;11.242;2023-04-25T06:41:19;7.70;;;6.27;;
14125;SDS011;7141;49.484;11.242;2023-04-25T06:43:45;7.67;;;6.60;;
14125;SDS011;7141;49.484;11.242;2023-04-25T06:46:11;8.10;;;6.47;;
14125;SDS011;7141;49.484;11.242;2023-04-25T06:48:37;8.03;;;7.23;;
14125;SDS011;7141;49.484;11.242;2023-04-25T06:51:03;7.90;;;6.97;;
14125;SDS011;7141;49.484;11.242;2023-04-25T06:53:29;8.27;;;6.53;;
14125;SDS011;7141;49.484;11.242;2023-04-25T06:55:55;7.83;;;6.67;;
14125;SDS011;7141;49.484;11.242;2023-04-25T06:58:21;7.73;;;6.43;;
14125;SDS011;7141;49.484;11.242;2023-04-25T07:00:47;9.60;;;7.40;;
14125;SDS011;7141;49.484;11.242;2023-04-25T07:03:13;8.33;;;7.20;;
14125;SDS011;7141;49.484;11.242;2023-04-25T07:05:39;9.07;;;6.83;;
14125;SDS011;7141;49.484;11.242;2023-04-25T07:08:05;8.40;;;6.63;;
14125;SDS011;7141;49.484;11.242;2023-04-25T07:10:31;11.70;;;7.27;;
14125;SDS011;7141;49.484;11.242;2023-04-25T07:12:57;8.87;;;7.67;;
14125;SDS011;7141;49.484;11.242;2023-04-25T07:15:23;12.50;;;7.20;;
14125;SDS011;7141;49.484;11.242;2023-04-25T07:17:49;8.93;;;7.30;;
14125;SDS011;7141;49.484;11.242;2023-04-25T07:20:16;8.10;;;7.00;;
14125;SDS011;7141;49.484;11.242;2023-04-25T07:22:42;11.90;;;7.40;;
14125;SDS011;7141;49.484;11.242;2023-04-25T07:25:08;10.30;;;7.90;;
14125;SDS011;7141;49.484;11.242;2023-04-25T07:27:35;9.87;;;7.47;;
14125;SDS011;7141;49.484;11.242;2023-04-25T07:30:01;10.77;;;7.17;;
14125;SDS011;7141;49.484;11.242;2023-04-25T07:32:28;8.63;;;7.00;;
14125;SDS011;7141;49.484;11.242;2023-04-25T07:34:55;8.83;;;7.40;;
14125;SDS011;7141;49.484;11.242;2023-04-25T07:37:21;11.57;;;7.43;;
14125;SDS011;7141;49.484;11.242;2023-04-25T07:39:47;8.80;;;7.33;;
14125;SDS011;7141;49.484;11.242;2023-04-25T07:42:13;8.67;;;5.73;;
14125;SDS011;7141;49.484;11.242;2023-04-25T07:44:39;6.93;;;5.10;;
14125;SDS011;7141;49.484;11.242;2023-04-25T07:47:06;5.07;;;4.00;;
14125;SDS011;7141;49.484;11.242;2023-04-25T07:49:35;6.13;;;3.73;;
14125;SDS011;7141;49.484;11.242;2023-04-25T07:52:02;5.33;;;4.30;;
14125;SDS011;7141;49.484;11.242;2023-04-25T07:54:28;5.73;;;3.90;;
14125;SDS011;7141;49.484;11.242;2023-04-25T07:56:55;5.93;;;4.20;;
14125;SDS011;7141;49.484;11.242;2023-04-25T07:59:21;5.93;;;4.67;;
14125;SDS011;7141;49.484;11.242;2023-04-25T08:01:47;5.93;;;4.07;;
14125;SDS011;7141;49.484;11.242;2023-04-25T08:04:13;5.03;;;4.27;;
14125;SDS011;7141;49.484;11.242;2023-04-25T08:06:39;5.17;;;4.07;;
14125;SDS011;7141;49.484;11.242;2023-04-25T08:09:08;5.50;;;4.17;;
14125;SDS011;7141;49.484;11.242;2023-04-25T08:11:34;6.63;;;3.93;;
14125;SDS011;7141;49.484;11.242;2023-04-25T08:14:00;5.60;;;4.67;;
14125;SDS011;7141;49.484;11.242;2023-04-25T08:16:26;5.93;;;4.57;;
14125;SDS011;7141;49.484;11.242;2023-04-25T08:18:52;6.63;;;4.50;;
14125;SDS011;7141;49.484;11.242;2023-04-25T08:21:18;4.50;;;4.00;;
14125;SDS011;7141;49.484;11.242;2023-04-25T08:23:45;6.33;;;3.73;;
14125;SDS011;7141;49.484;11.242;2023-04-25T08:26:11;5.63;;;3.60;;
14125;SDS011;7141;49.484;11.242;2023-04-25T08:28:37;5.13;;;3.87;;
14125;SDS011;7141;49.484;11.242;2023-04-25T08:31:03;8.47;;;3.33;;
14125;SDS011;7141;49.484;11.242;2023-04-25T08:33:29;4.97;;;3.43;;
14125;SDS011;7141;49.484;11.242;2023-04-25T08:35:55;3.57;;;3.10;;
14125;SDS011;7141;49.484;11.242;2023-04-25T08:38:21;3.80;;;3.33;;
14125;SDS011;7141;49.484;11.242;2023-04-25T08:40:48;4.10;;;3.30;;
14125;SDS011;7141;49.484;11.242;2023-04-25T08:43:16;4.33;;;3.00;;
14125;SDS011;7141;49.484;11.242;2023-04-25T08:45:43;4.97;;;3.17;;
14125;SDS011;7141;49.484;11.242;2023-04-25T08:48:11;5.63;;;3.07;;
14125;SDS011;7141;49.484;11.242;2023-04-25T08:50:55;6.23;;;3.17;;
14125;SDS011;7141;49.484;11.242;2023-04-25T08:53:25;5.37;;;3.30;;
14125;SDS011;7141;49.484;11.242;2023-04-25T08:55:55;4.53;;;3.40;;
14125;SDS011;7141;49.484;11.242;2023-04-25T08:58:21;6.37;;;3.27;;
14125;SDS011;7141;49.484;11.242;2023-04-25T09:00:48;5.37;;;3.57;;
14125;SDS011;7141;49.484;11.242;2023-04-25T09:03:14;3.97;;;2.77;;
14125;SDS011;7141;49.484;11.242;2023-04-25T09:05:40;5.63;;;3.80;;
14125;SDS011;7141;49.484;11.242;2023-04-25T09:08:07;7.93;;;4.00;;
14125;SDS011;7141;49.484;11.242;2023-04-25T09:10:33;9.07;;;4.10;;
14125;SDS011;7141;49.484;11.242;2023-04-25T09:13:06;5.57;;;3.90;;
14125;SDS011;7141;49.484;11.242;2023-04-25T09:16:09;7.70;;;4.30;;
14125;SDS011;7141;49.484;11.242;2023-04-25T09:18:32;5.90;;;3.50;;
14125;SDS011;7141;49.484;11.242;2023-04-25T09:21:08;5.67;;;3.70;;
14125;SDS011;7141;49.484;11.242;2023-04-25T09:23:45;5.20;;;3.90;;
14125;SDS011;7141;49.484;11.242;2023-04-25T09:26:13;6.80;;;3.97;;
14125;SDS011;7141;49.484;11.242;2023-04-25T09:28:40;4.07;;;3.47;;
14125;SDS011;7141;49.484;11.242;2023-04-25T09:31:09;6.47;;;4.10;;
14125;SDS011;7141;49.484;11.242;2023-04-25T09:33:35;6.00;;;4.33;;
14125;SDS011;7141;49.484;11.242;2023-04-25T09:36:02;6.63;;;3.73;;
14125;SDS011;7141;49.484;11.242;2023-04-25T09:38:29;7.53;;;4.60;;
14125;SDS011;7141;49.484;11.242;2023-04-25T09:40:55;5.67;;;4.53;;
14125;SDS011;7141;49.484;11.242;2023-04-25T09:43:22;6.97;;;4.20;;
14125;SDS011;7141;49.484;11.242;2023-04-25T09:45:49;6.00;;;3.77;;
14125;SDS011;7141;49.484;11.242;2023-04-25T09:48:17;8.33;;;4.40;;
14125;SDS011;7141;49.484;11.242;2023-04-25T09:50:44;5.27;;;3.93;;
14125;SDS011;7141;49.484;11.242;2023-04-25T09:53:10;6.03;;;3.90;;
14125;SDS011;7141;49.484;11.242;2023-04-25T09:55:36;10.17;;;4.97;;
14125;SDS011;7141;49.484;11.242;2023-04-25T09:58:04;5.43;;;3.80;;
14125;SDS011;7141;49.484;11.242;2023-04-25T10:00:32;5.80;;;3.60;;
14125;SDS011;7141;49.484;11.242;2023-04-25T10:02:58;4.73;;;3.60;;
14125;SDS011;7141;49.484;11.242;2023-04-25T10:05:26;6.20;;;4.10;;
14125;SDS011;7141;49.484;11.242;2023-04-25T10:07:54;9.23;;;3.40;;
14125;SDS011;7141;49.484;11.242;2023-04-25T10:10:21;5.20;;;3.70;;
14125;SDS011;7141;49.484;11.242;2023-04-25T10:12:50;5.00;;;3.07;;
14125;SDS011;7141;49.484;11.242;2023-04-25T10:15:17;6.17;;;3.20;;
14125;SDS011;7141;49.484;11.242;2023-04-25T10:17:43;4.17;;;3.10;;
14125;SDS011;7141;49.484;11.242;2023-04-25T10:20:09;5.13;;;3.67;;
14125;SDS011;7141;49.484;11.242;2023-04-25T10:22:40;7.23;;;3.20;;
14125;SDS011;7141;49.484;11.242;2023-04-25T10:25:07;4.67;;;3.00;;
14125;SDS011;7141;49.484;11.242;2023-04-25T10:27:34;5.10;;;3.17;;
14125;SDS011;7141;49.484;11.242;2023-04-25T10:30:18;7.80;;;2.93;;
14125;SDS011;7141;49.484;11.242;2023-04-25T10:32:44;6.00;;;2.90;;
14125;SDS011;7141;49.484;11.242;2023-04-25T10:37:38;8.23;;;3.77;;
14125;SDS011;7141;49.484;11.242;2023-04-25T10:40:10;4.70;;;2.93;;
14125;SDS011;7141;49.484;11.242;2023-04-25T10:42:37;3.53;;;2.60;;
14125;SDS011;7141;49.484;11.242;2023-04-25T10:45:06;4.50;;;2.27;;
14125;SDS011;7141;49.484;11.242;2023-04-25T10:47:35;5.50;;;3.20;;
14125;SDS011;7141;49.484;11.242;2023-04-25T10:50:05;4.33;;;2.30;;
14125;SDS011;7141;49.484;11.242;2023-04-25T10:52:32;2.83;;;1.70;;
14125;SDS011;7141;49.484;11.242;2023-04-25T10:54:58;3.93;;;1.60;;
14125;SDS011;7141;49.484;11.242;2023-04-25T11:02:30;4.50;;;1.40;;
14125;SDS011;7141;49.484;11.242;2023-04-25T11:04:56;1.83;;;1.40;;
14125;SDS011;7141;49.484;11.242;2023-04-25T11:07:38;2.30;;;1.50;;
14125;SDS011;7141;49.484;11.242;2023-04-25T11:10:05;2.80;;;1.50;;
14125;SDS011;7141;49.484;11.242;2023-04-25T11:12:31;4.63;;;2.03;;
14125;SDS011;7141;49.484;11.242;2023-04-25T11:15:01;4.87;;;1.90;;
14125;SDS011;7141;49.484;11.242;2023-04-25T11:17:27;6.83;;;2.20;;
14125;SDS011;7141;49.484;11.242;2023-04-25T11:19:54;4.57;;;2.30;;
14125;SDS011;7141;49.484;11.242;2023-04-25T11:22:21;7.00;;;2.10;;
14125;SDS011;7141;49.484;11.242;2023-04-25T11:24:47;4.60;;;2.80;;
14125;SDS011;7141;49.484;11.242;2023-04-25T11:27:13;4.90;;;2.83;;
14125;SDS011;7141;49.484;11.242;2023-04-25T11:29:40;3.27;;;2.30;;
14125;SDS011;7141;49.484;11.242;2023-04-25T11:32:06;3.60;;;2.37;;
14125;SDS011;7141;49.484;11.242;2023-04-25T11:34:32;3.77;;;1.90;;
14125;SDS011;7141;49.484;11.242;2023-04-25T11:36:59;3.37;;;2.20;;
14125;SDS011;7141;49.484;11.242;2023-04-25T11:39:25;4.30;;;2.03;;
14125;SDS011;7141;49.484;11.242;2023-04-25T11:41:52;4.53;;;2.00;;
14125;SDS011;7141;49.484;11.242;2023-04-25T11:44:18;9.23;;;1.90;;
14125;SDS011;7141;49.484;11.242;2023-04-25T11:46:45;4.00;;;1.90;;
14125;SDS011;7141;49.484;11.242;2023-04-25T11:49:12;4.80;;;2.03;;
14125;SDS011;7141;49.484;11.242;2023-04-25T11:51:38;3.67;;;1.80;;
14125;SDS011;7141;49.484;11.242;2023-04-25T11:54:05;3.13;;;1.70;;
14125;SDS011;7141;49.484;11.242;2023-04-25T11:56:31;2.10;;;1.70;;
14125;SDS011;7141;49.484;11.242;2023-04-25T11:58:58;3.63;;;1.90;;
14125;SDS011;7141;49.484;11.242;2023-04-25T12:01:32;2.00;;;1.40;;
14125;SDS011;7141;49.484;11.242;2023-04-25T12:03:58;1.53;;;1.37;;
14125;SDS011;7141;49.484;11.242;2023-04-25T12:06:38;2.73;;;1.50;;
14125;SDS011;7141;49.484;11.242;2023-04-25T12:09:06;3.90;;;1.47;;
14125;SDS011;7141;49.484;11.242;2023-04-25T12:11:40;2.63;;;1.40;;
14125;SDS011;7141;49.484;11.242;2023-04-25T12:14:06;2.73;;;1.03;;
14125;SDS011;7141;49.484;11.242;2023-04-25T12:16:42;4.70;;;1.50;;
14125;SDS011;7141;49.484;11.242;2023-04-25T12:19:08;1.97;;;1.50;;
14125;SDS011;7141;49.484;11.242;2023-04-25T12:21:35;2.93;;;1.23;;
14125;SDS011;7141;49.484;11.242;2023-04-25T12:24:11;1.60;;;1.30;;
14125;SDS011;7141;49.484;11.242;2023-04-25T12:26:50;2.13;;;1.23;;
14125;SDS011;7141;49.484;11.242;2023-04-25T12:29:21;3.07;;;1.43;;
14125;SDS011;7141;49.484;11.242;2023-04-25T12:31:48;1.47;;;1.10;;
14125;SDS011;7141;49.484;11.242;2023-04-25T12:34:14;2.93;;;1.50;;
14125;SDS011;7141;49.484;11.242;2023-04-25T12:36:40;2.93;;;1.57;;
14125;SDS011;7141;49.484;11.242;2023-04-25T12:39:06;2.70;;;1.30;;
14125;SDS011;7141;49.484;11.242;2023-04-25T12:41:32;4.07;;;1.40;;
14125;SDS011;7141;49.484;11.242;2023-04-25T12:43:58;1.60;;;1.20;;
14125;SDS011;7141;49.484;11.242;2023-04-25T12:46:25;1.50;;;0.97;;
14125;SDS011;7141;49.484;11.242;2023-04-25T12:48:51;2.10;;;1.30;;
14125;SDS011;7141;49.484;11.242;2023-04-25T12:51:17;2.73;;;1.43;;
14125;SDS011;7141;49.484;11.242;2023-04-25T12:53:43;2.13;;;1.50;;
14125;SDS011;7141;49.484;11.242;2023-04-25T12:56:09;2.07;;;1.50;;
14125;SDS011;7141;49.484;11.242;2023-04-25T12:58:35;1.70;;;1.43;;
14125;SDS011;7141;49.484;11.242;2023-04-25T13:01:01;1.50;;;1.40;;
14125;SDS011;7141;49.484;11.242;2023-04-25T13:03:27;1.53;;;1.40;;
14125;SDS011;7141;49.484;11.242;2023-04-25T13:05:52;1.67;;;1.33;;
14125;SDS011;7141;49.484;11.242;2023-04-25T13:08:19;3.37;;;1.93;;
14125;SDS011;7141;49.484;11.242;2023-04-25T13:10:45;2.27;;;1.80;;
14125;SDS011;7141;49.484;11.242;2023-04-25T13:13:11;1.80;;;1.60;;
14125;SDS011;7141;49.484;11.242;2023-04-25T13:15:37;2.67;;;1.43;;
14125;SDS011;7141;49.484;11.242;2023-04-25T13:18:03;2.17;;;1.83;;
14125;SDS011;7141;49.484;11.242;2023-04-25T13:20:32;2.60;;;1.70;;
14125;SDS011;7141;49.484;11.242;2023-04-25T13:22:58;1.37;;;1.20;;
14125;SDS011;7141;49.484;11.242;2023-04-25T13:25:24;2.43;;;1.67;;
14125;SDS011;7141;49.484;11.242;2023-04-25T13:27:51;3.17;;;1.50;;
14125;SDS011;7141;49.484;11.242;2023-04-25T13:30:17;5.07;;;2.03;;
14125;SDS011;7141;49.484;11.242;2023-04-25T13:32:43;1.77;;;1.67;;
14125;SDS011;7141;49.484;11.242;2023-04-25T13:35:09;2.10;;;1.67;;
14125;SDS011;7141;49.484;11.242;2023-04-25T13:37:35;2.40;;;1.60;;
14125;SDS011;7141;49.484;11.242;2023-04-25T13:40:02;2.07;;;1.50;;
14125;SDS011;7141;49.484;11.242;2023-04-25T13:42:30;5.60;;;1.90;;
14125;SDS011;7141;49.484;11.242;2023-04-25T13:44:56;2.50;;;1.87;;
14125;SDS011;7141;49.484;11.242;2023-04-25T13:47:22;2.07;;;1.67;;
14125;SDS011;7141;49.484;11.242;2023-04-25T13:49:49;6.23;;;1.80;;
14125;SDS011;7141;49.484;11.242;2023-04-25T13:52:15;1.73;;;1.53;;
14125;SDS011;7141;49.484;11.242;2023-04-25T13:54:41;2.87;;;1.93;;
14125;SDS011;7141;49.484;11.242;2023-04-25T13:57:07;2.77;;;2.07;;
14125;SDS011;7141;49.484;11.242;2023-04-25T13:59:33;2.57;;;1.97;;
14125;SDS011;7141;49.484;11.242;2023-04-25T14:01:59;3.03;;;1.93;;
14125;SDS011;7141;49.484;11.242;2023-04-25T14:04:25;4.97;;;2.50;;
14125;SDS011;7141;49.484;11.242;2023-04-25T14:06:52;2.47;;;1.80;;
14125;SDS011;7141;49.484;11.242;2023-04-25T14:09:18;6.77;;;2.17;;
14125;SDS011;7141;49.484;11.242;2023-04-25T14:11:47;3.83;;;2.00;;
14125;SDS011;7141;49.484;11.242;2023-04-25T14:14:13;4.40;;;2.13;;
14125;SDS011;7141;49.484;11.242;2023-04-25T14:16:41;2.33;;;1.70;;
14125;SDS011;7141;49.484;11.242;2023-04-25T14:19:07;3.43;;;1.80;;
14125;SDS011;7141;49.484;11.242;2023-04-25T14:21:33;2.30;;;1.67;;
14125;SDS011;7141;49.484;11.242;2023-04-25T14:23:58;2.23;;;1.80;;
14125;SDS011;7141;49.484;11.242;2023-04-25T14:26:24;2.07;;;1.80;;
14125;SDS011;7141;49.484;11.242;2023-04-25T14:28:51;3.90;;;2.30;;
14125;SDS011;7141;49.484;11.242;2023-04-25T14:31:17;9.03;;;2.53;;
14125;SDS011;7141;49.484;11.242;2023-04-25T14:33:43;4.47;;;2.17;;
14125;SDS011;7141;49.484;11.242;2023-04-25T14:36:09;3.33;;;2.37;;
14125;SDS011;7141;49.484;11.242;2023-04-25T14:38:35;4.20;;;2.03;;
14125;SDS011;7141;49.484;11.242;2023-04-25T14:41:01;2.93;;;2.30;;
14125;SDS011;7141;49.484;11.242;2023-04-25T14:43:27;6.10;;;2.10;;
14125;SDS011;7141;49.484;11.242;2023-04-25T14:45:53;5.67;;;2.30;;
14125;SDS011;7141;49.484;11.242;2023-04-25T14:48:19;2.23;;;2.00;;
14125;SDS011;7141;49.484;11.242;2023-04-25T14:50:45;3.07;;;2.10;;
14125;SDS011;7141;49.484;11.242;2023-04-25T14:53:11;4.03;;;2.43;;